createdAt,value
2022-08-11T00:00:34.641Z,100776.40
2022-08-11T00:03:08.535Z,100781.19
2022-08-11T00:05:54.054Z,100794.13
2022-08-11T00:08:28.218Z,100784.60
2022-08-11T00:11:03.762Z,100790.20
2022-08-11T00:13:36.388Z,100792.13
2022-08-11T00:16:05.211Z,100804.95
2022-08-11T00:18:41.356Z,100802.35
2022-08-11T00:21:08.900Z,100798.67
2022-08-11T00:23:41.818Z,100805.92
2022-08-11T00:26:09.142Z,100800.15
2022-08-11T00:28:36.496Z,100797.84
2022-08-11T00:31:08.122Z,100798.77
2022-08-11T00:33:53.331Z,100794.05
2022-08-11T00:36:25.680Z,100785.99
2022-08-11T00:38:53.778Z,100776.30
2022-08-11T00:41:43.271Z,100773.47
2022-08-11T00:44:49.104Z,100772.64
2022-08-11T00:47:23.119Z,100768.16
2022-08-11T00:50:01.937Z,100765.09
2022-08-11T00:52:53.261Z,100760.86
2022-08-11T00:55:47.119Z,100766.87
2022-08-11T00:58:41.725Z,100766.78
2022-08-11T01:01:16.960Z,100772.23
2022-08-11T01:03:50.268Z,100765.26
2022-08-11T01:06:36.560Z,100768.54
2022-08-11T01:09:42.010Z,100762.05
2022-08-11T01:12:46.953Z,100751.30
2022-08-11T01:15:32.937Z,100754.08
2022-08-11T01:18:35.837Z,100751.48
2022-08-11T01:21:47.118Z,100747.42
2022-08-11T01:24:23.588Z,100751.68
2022-08-11T01:27:25.863Z,100745.84
2022-08-11T01:30:49.025Z,100748.59
2022-08-11T01:33:35.836Z,100739.54
2022-08-11T01:36:41.382Z,100738.02
2022-08-11T01:39:23.834Z,100732.75
2022-08-11T01:42:47.575Z,100735.81
2022-08-11T01:45:48.825Z,100731.65
2022-08-11T01:48:36.657Z,100731.71
2022-08-11T01:51:25.514Z,100731.00
2022-08-11T01:54:20.728Z,100724.04
2022-08-11T01:56:57.396Z,100718.76
2022-08-11T01:59:39.911Z,100714.89
2022-08-11T02:02:48.974Z,100713.95
2022-08-11T02:05:35.141Z,100711.21
2022-08-11T02:08:33.226Z,100709.88
2022-08-11T02:11:35.271Z,100709.21
2022-08-11T02:14:13.193Z,100711.97
2022-08-11T02:17:14.650Z,100707.38
2022-08-11T02:20:17.023Z,100698.37
2022-08-11T02:23:23.940Z,100697.56
2022-08-11T02:26:12.358Z,100699.75
2022-08-11T02:28:55.240Z,100689.62
2022-08-11T02:32:24.175Z,100687.31
2022-08-11T02:34:39.652Z,100691.00
2022-08-11T02:37:25.230Z,100695.31
2022-08-11T02:40:03.243Z,100700.52
2022-08-11T02:42:46.547Z,100703.17
2022-08-11T02:45:29.282Z,100700.20
2022-08-11T02:48:42.922Z,100698.56
2022-08-11T02:51:17.581Z,100697.49
2022-08-11T02:53:56.210Z,100699.12
2022-08-11T02:56:28.748Z,100696.30
2022-08-11T02:59:45.462Z,100695.95
2022-08-11T03:02:31.867Z,100697.44
2022-08-11T03:04:59.223Z,100701.13
2022-08-11T03:07:35.793Z,100700.06
2022-08-11T03:10:07.344Z,100701.08
2022-08-11T03:13:01.532Z,100699.81
2022-08-11T03:16:08.104Z,100702.32
2022-08-11T03:18:41.643Z,100696.64
2022-08-11T03:21:23.582Z,100695.15
2022-08-11T03:24:04.330Z,100693.29
2022-08-11T03:30:18.280Z,100692.96
2022-08-11T03:33:08.640Z,100690.41
2022-08-11T03:36:17.462Z,100678.43
2022-08-11T03:39:02.030Z,100678.88
2022-08-11T03:42:04.235Z,100681.20
2022-08-11T03:44:37.189Z,100680.38
2022-08-11T03:47:18.771Z,100680.33
2022-08-11T03:50:07.632Z,100681.73
2022-08-11T03:52:53.829Z,100671.69
2022-08-11T03:55:22.409Z,100676.86
2022-08-11T03:58:14.751Z,100672.11
2022-08-11T04:01:06.376Z,100671.80
2022-08-11T04:03:52.368Z,100678.50
2022-08-11T04:06:48.295Z,100681.91
2022-08-11T04:09:34.498Z,100685.80
2022-08-11T04:12:05.021Z,100678.13
2022-08-11T04:15:23.988Z,100676.95
2022-08-11T04:17:58.227Z,100677.77
2022-08-11T04:20:59.759Z,100677.70
2022-08-11T04:24:13.239Z,100678.56
2022-08-11T04:26:57.041Z,100683.18
2022-08-11T04:29:36.003Z,100679.54
2022-08-11T04:32:47.147Z,100677.62
2022-08-11T04:35:23.790Z,100675.27
2022-08-11T04:38:12.785Z,100671.16
2022-08-11T04:41:19.972Z,100666.38
2022-08-11T04:44:06.388Z,100665.09
2022-08-11T04:46:48.499Z,100658.50
2022-08-11T04:49:53.411Z,100651.19
2022-08-11T04:52:59.580Z,100647.14
2022-08-11T04:55:54.890Z,100644.16
2022-08-11T04:59:18.773Z,100649.78
2022-08-11T05:02:24.325Z,100653.20
2022-08-11T05:05:28.754Z,100652.61
2022-08-11T05:08:15.249Z,100645.71
2022-08-11T05:11:04.825Z,100645.17
2022-08-11T05:13:53.788Z,100645.52
2022-08-11T05:16:54.321Z,100638.33
2022-08-11T05:19:40.621Z,100635.80
2022-08-11T05:22:27.884Z,100644.70
2022-08-11T05:26:44.213Z,100640.61
2022-08-11T05:28:39.661Z,100651.52
2022-08-11T05:31:29.442Z,100653.67
2022-08-11T05:34:19.320Z,100655.00
2022-08-11T05:36:52.616Z,100647.00
2022-08-11T05:39:46.043Z,100648.38
2022-08-11T05:42:32.250Z,100646.16
2022-08-11T05:45:20.532Z,100651.05
2022-08-11T05:48:09.798Z,100642.34
2022-08-11T05:50:55.901Z,100641.38
2022-08-11T05:53:45.852Z,100633.66
2022-08-11T05:56:17.122Z,100623.36
2022-08-11T05:58:45.473Z,100622.98
2022-08-11T06:01:14.533Z,100632.74
2022-08-11T06:04:03.265Z,100633.25
2022-08-11T06:06:30.921Z,100631.56
2022-08-11T06:08:59.309Z,100628.21
2022-08-11T06:11:43.615Z,100632.80
2022-08-11T06:14:13.467Z,100648.47
2022-08-11T06:16:42.157Z,100656.88
2022-08-11T06:19:10.027Z,100659.32
2022-08-11T06:21:37.990Z,100661.84
2022-08-11T06:24:11.678Z,100671.09
2022-08-11T06:26:55.065Z,100674.66
2022-08-11T06:29:46.882Z,100669.36
2022-08-11T06:32:14.513Z,100668.27
2022-08-11T06:35:16.582Z,100670.49
2022-08-11T06:37:47.175Z,100667.79
2022-08-11T06:40:36.895Z,100660.30
2022-08-11T06:43:19.099Z,100659.36
2022-08-11T06:45:46.553Z,100655.88
2022-08-11T06:48:21.508Z,100665.81
2022-08-11T06:51:10.861Z,100671.16
2022-08-11T06:53:56.360Z,100677.11
2022-08-11T07:00:02.532Z,100686.52
2022-08-11T07:03:04.312Z,100677.80
2022-08-11T07:05:54.096Z,100665.79
2022-08-11T07:09:11.827Z,100655.10
2022-08-11T07:12:12.857Z,100654.28
2022-08-11T07:15:11.453Z,100652.52
2022-08-11T07:17:43.430Z,100649.19
2022-08-11T07:20:46.805Z,100644.83
2022-08-11T07:23:33.108Z,100651.73
2022-08-11T07:26:19.303Z,100655.38
2022-08-11T07:28:56.798Z,100653.20
2022-08-11T07:31:37.152Z,100655.58
2022-08-11T07:34:19.663Z,100657.07
2022-08-11T07:37:04.017Z,100662.06
2022-08-11T07:39:34.750Z,100666.52
2022-08-11T07:42:06.614Z,100670.73
2022-08-11T07:44:54.147Z,100667.70
2022-08-11T07:47:40.551Z,100670.73
2022-08-11T07:50:28.176Z,100682.08
2022-08-11T07:52:56.656Z,100696.56
2022-08-11T07:55:49.009Z,100696.75
2022-08-11T07:58:44.072Z,100702.20
2022-08-11T08:01:44.960Z,100690.96
2022-08-11T08:04:32.060Z,100677.67
2022-08-11T08:07:18.055Z,100684.02
2022-08-11T08:10:04.563Z,100677.77
2022-08-11T08:12:50.861Z,100685.95
2022-08-11T08:15:36.954Z,100685.44
2022-08-11T08:18:20.742Z,100687.51
2022-08-11T08:20:55.127Z,100687.35
2022-08-11T08:23:34.026Z,100690.41
2022-08-11T08:26:04.704Z,100690.05
2022-08-11T08:28:32.791Z,100687.09
2022-08-11T08:31:00.923Z,100683.50
2022-08-11T08:33:31.653Z,100669.69
2022-08-11T08:36:14.369Z,100674.06
2022-08-11T08:38:42.850Z,100664.20
2022-08-11T08:41:13.384Z,100665.17
2022-08-11T08:43:47.559Z,100677.91
2022-08-11T08:46:16.487Z,100687.17
2022-08-11T08:48:43.948Z,100689.05
2022-08-11T08:51:58.627Z,100682.01
2022-08-11T08:54:22.180Z,100676.87
2022-08-11T08:56:49.740Z,100671.98
2022-08-11T08:59:17.091Z,100665.76
2022-08-11T09:01:51.569Z,100669.52
2022-08-11T09:04:21.090Z,100671.61
2022-08-11T09:06:52.367Z,100674.42
2022-08-11T09:09:21.156Z,100683.93
2022-08-11T09:11:51.752Z,100703.91
2022-08-11T09:14:52.020Z,100707.77
2022-08-11T09:17:20.603Z,100710.91
2022-08-11T09:19:54.143Z,100708.35
2022-08-11T09:23:03.227Z,100713.49
2022-08-11T09:25:54.244Z,100711.64
2022-08-11T09:28:22.290Z,100703.33
2022-08-11T09:30:55.509Z,100698.95
2022-08-11T09:33:24.092Z,100696.17
2022-08-11T09:35:52.221Z,100695.69
2022-08-11T09:38:40.104Z,100699.81
2022-08-11T09:41:09.175Z,100696.75
2022-08-11T09:44:04.326Z,100695.42
2022-08-11T09:46:33.503Z,100694.29
2022-08-11T09:49:01.479Z,100697.02
2022-08-11T09:51:31.514Z,100691.54
2022-08-11T09:54:06.937Z,100689.58
2022-08-11T09:56:54.056Z,100687.00
2022-08-11T09:59:22.128Z,100688.55
2022-08-11T10:01:56.970Z,100687.05
2022-08-11T10:04:47.730Z,100690.02
2022-08-11T10:07:16.006Z,100690.05
2022-08-11T10:09:53.428Z,100695.42
2022-08-11T10:12:28.363Z,100693.66
2022-08-11T10:15:27.362Z,100691.67
2022-08-11T10:18:16.737Z,100692.55
2022-08-11T10:20:44.209Z,100686.34
2022-08-11T10:23:31.413Z,100685.95
2022-08-11T10:26:17.608Z,100683.70
2022-08-11T10:29:10.037Z,100683.08
2022-08-11T10:31:51.140Z,100683.75
2022-08-11T10:34:27.358Z,100683.77
2022-08-11T10:36:57.515Z,100683.21
2022-08-11T10:39:24.817Z,100689.48
2022-08-11T10:42:20.870Z,100689.48
2022-08-11T10:44:58.699Z,100688.39
2022-08-11T10:47:47.749Z,100692.89
2022-08-11T10:50:35.903Z,100691.05
2022-08-11T10:53:22.107Z,100688.82
2022-08-11T10:56:08.307Z,100693.19
2022-08-11T10:58:49.373Z,100689.55
2022-08-11T11:01:32.990Z,100692.55
2022-08-11T11:04:12.260Z,100691.38
2022-08-11T11:06:55.068Z,100692.73
2022-08-11T11:09:26.194Z,100690.88
2022-08-11T11:12:13.634Z,100694.80
2022-08-11T11:15:01.886Z,100681.77
2022-08-11T11:17:49.717Z,100678.97
2022-08-11T11:20:36.357Z,100679.80
2022-08-11T11:23:17.915Z,100677.83
2022-08-11T11:26:15.011Z,100668.00
2022-08-11T11:29:21.641Z,100670.42
2022-08-11T11:31:52.067Z,100668.41
2022-08-11T11:34:53.090Z,100665.26
2022-08-11T11:37:23.053Z,100667.11
2022-08-11T11:39:50.544Z,100669.80
2022-08-11T11:42:18.765Z,100670.47
2022-08-11T11:44:46.426Z,100670.21
2022-08-11T11:47:14.090Z,100670.39
2022-08-11T11:49:44.397Z,100670.08
2022-08-11T11:52:17.472Z,100671.73
2022-08-11T11:54:45.780Z,100669.75
2022-08-11T11:57:31.670Z,100665.91
2022-08-11T12:00:17.565Z,100671.59
2022-08-11T12:02:44.930Z,100667.88
2022-08-11T12:05:12.374Z,100670.13
2022-08-11T12:08:12.334Z,100674.89
2022-08-11T12:10:45.587Z,100679.08
2022-08-11T12:13:31.686Z,100671.95
2022-08-11T12:16:31.853Z,100667.49
2022-08-11T12:18:56.861Z,100658.00
2022-08-11T12:21:24.370Z,100653.86
2022-08-11T12:24:10.258Z,100658.73
2022-08-11T12:27:14.964Z,100654.16
2022-08-11T12:29:40.022Z,100661.06
2022-08-11T12:32:09.391Z,100654.20
2022-08-11T12:34:36.951Z,100649.51
2022-08-11T12:37:06.110Z,100652.74
2022-08-11T12:40:16.310Z,100648.09
2022-08-11T12:43:00.565Z,100651.52
2022-08-11T12:45:31.968Z,100639.84
2022-08-11T12:48:57.395Z,100635.59
2022-08-11T12:52:11.382Z,100634.84
2022-08-11T12:54:34.840Z,100633.32
2022-08-11T12:57:37.185Z,100634.49
2022-08-11T13:00:25.469Z,100637.16
2022-08-11T13:03:11.762Z,100639.38
2022-08-11T13:05:44.320Z,100637.15
2022-08-11T13:08:15.608Z,100645.03
2022-08-11T13:11:02.710Z,100650.99
2022-08-11T13:13:53.587Z,100649.54
2022-08-11T13:16:18.719Z,100645.59
2022-08-11T13:18:46.482Z,100643.41
2022-08-11T13:21:20.731Z,100645.62
2022-08-11T13:24:01.752Z,100645.49
2022-08-11T13:26:47.226Z,100645.50
2022-08-11T13:29:21.574Z,100639.64
2022-08-11T13:31:50.576Z,100641.44
2022-08-11T13:34:18.605Z,100638.44
2022-08-11T13:36:49.737Z,100639.61
2022-08-11T13:39:17.180Z,100642.53
2022-08-11T13:41:45.622Z,100635.57
2022-08-11T13:44:19.121Z,100639.54
2022-08-11T13:46:49.555Z,100641.39
2022-08-11T13:49:20.692Z,100644.33
2022-08-11T13:51:48.563Z,100646.84
2022-08-11T13:54:19.145Z,100652.77
2022-08-11T13:56:50.128Z,100658.13
2022-08-11T13:59:23.124Z,100659.23
2022-08-11T14:02:22.167Z,100663.36
2022-08-11T14:05:01.963Z,100664.23
2022-08-11T14:07:37.979Z,100668.73
2022-08-11T14:10:07.249Z,100667.23
2022-08-11T14:12:54.955Z,100665.98
2022-08-11T14:15:35.424Z,100664.62
2022-08-11T14:18:07.849Z,100665.77
2022-08-11T14:20:56.343Z,100663.28
2022-08-11T14:23:27.902Z,100664.77
2022-08-11T14:26:14.503Z,100666.16
2022-08-11T14:28:45.065Z,100667.79
2022-08-11T14:31:16.688Z,100665.70
2022-08-11T14:33:59.282Z,100667.75
2022-08-11T14:36:38.333Z,100668.70
2022-08-11T14:39:13.747Z,100670.65
2022-08-11T14:42:11.437Z,100669.51
2022-08-11T14:45:04.706Z,100670.98
2022-08-11T14:47:38.181Z,100670.73
2022-08-11T14:50:12.298Z,100667.05
2022-08-11T14:52:43.845Z,100667.81
2022-08-11T14:55:29.664Z,100660.59
2022-08-11T14:57:57.312Z,100663.30
2022-08-11T15:00:24.896Z,100658.24
2022-08-11T15:03:11.279Z,100658.98
2022-08-11T15:06:13.150Z,100661.41
2022-08-11T15:08:56.277Z,100663.18
2022-08-11T15:11:44.830Z,100666.67
2022-08-11T15:14:12.596Z,100666.87
2022-08-11T15:17:02.885Z,100666.12
2022-08-11T15:19:36.692Z,100662.61
2022-08-11T15:22:29.166Z,100660.30
2022-08-11T15:24:59.237Z,100662.57
2022-08-11T15:27:45.452Z,100661.67
2022-08-11T15:30:33.109Z,100658.98
2022-08-11T15:33:28.939Z,100660.84
2022-08-11T15:36:15.621Z,100658.33
2022-08-11T15:39:20.688Z,100651.42
2022-08-11T15:42:28.675Z,100647.71
2022-08-11T15:47:46.084Z,100646.57
2022-08-11T15:50:15.089Z,100641.45
2022-08-11T15:52:54.238Z,100642.84
2022-08-11T15:55:21.793Z,100636.52
2022-08-11T15:58:09.116Z,100640.80
2022-08-11T16:01:03.936Z,100635.71
2022-08-11T16:04:12.644Z,100635.92
2022-08-11T16:06:58.226Z,100637.44
2022-08-11T16:09:51.658Z,100644.11
2022-08-11T16:12:28.757Z,100636.59
2022-08-11T16:15:20.931Z,100630.58
2022-08-11T16:17:56.666Z,100630.52
2022-08-11T16:20:25.354Z,100633.62
2022-08-11T16:22:57.142Z,100639.27
2022-08-11T16:26:30.314Z,100640.35
2022-08-11T16:28:17.937Z,100637.45
2022-08-11T16:30:46.736Z,100637.34
2022-08-11T16:33:48.428Z,100639.13
2022-08-11T16:36:20.455Z,100634.02
2022-08-11T16:38:47.839Z,100636.17
2022-08-11T16:41:37.685Z,100636.27
2022-08-11T16:44:32.498Z,100642.23
2022-08-11T16:47:06.877Z,100647.48
2022-08-11T16:49:43.149Z,100648.48
2022-08-11T16:52:18.102Z,100649.30
2022-08-11T16:54:48.029Z,100650.23
2022-08-11T16:57:44.561Z,100652.64
2022-08-11T17:00:15.583Z,100655.05
2022-08-11T17:03:09.217Z,100661.37
2022-08-11T17:05:56.287Z,100660.71
2022-08-11T17:08:54.265Z,100659.92
2022-08-11T17:11:48.240Z,100661.34
2022-08-11T17:14:17.646Z,100671.55
2022-08-11T17:17:07.947Z,100675.50
2022-08-11T17:20:42.469Z,100676.85
2022-08-11T17:22:41.470Z,100678.55
2022-08-11T17:25:09.222Z,100677.90
2022-08-11T17:27:36.886Z,100677.70
2022-08-11T17:30:08.149Z,100682.09
2022-08-11T17:33:00.693Z,100686.79
2022-08-11T17:35:33.625Z,100686.11
2022-08-11T17:38:22.011Z,100684.61
2022-08-11T17:41:22.764Z,100686.04
2022-08-11T17:44:10.542Z,100683.25
2022-08-11T17:46:56.931Z,100691.83
2022-08-11T17:49:24.248Z,100705.48
2022-08-11T17:52:10.337Z,100708.74
2022-08-11T17:54:57.047Z,100711.18
2022-08-11T17:57:47.537Z,100714.48
2022-08-11T18:00:15.819Z,100721.23
2022-08-11T18:03:03.143Z,100720.52
2022-08-11T18:05:34.304Z,100725.21
2022-08-11T18:08:24.481Z,100723.91
2022-08-11T18:11:10.630Z,100727.33
2022-08-11T18:13:57.902Z,100732.59
2022-08-11T18:16:43.992Z,100734.55
2022-08-11T18:19:30.734Z,100733.58
2022-08-11T18:22:34.408Z,100738.33
2022-08-11T18:25:34.130Z,100743.02
2022-08-11T18:28:23.085Z,100746.34
2022-08-11T18:31:13.092Z,100748.23
2022-08-11T18:34:07.480Z,100745.08
2022-08-11T18:37:05.235Z,100747.42
2022-08-11T18:39:56.066Z,100742.43
2022-08-11T18:42:42.854Z,100744.33
2022-08-11T18:45:30.376Z,100746.46
2022-08-11T18:48:27.776Z,100748.06
2022-08-11T18:51:29.733Z,100747.89
2022-08-11T18:54:20.609Z,100746.89
2022-08-11T18:57:07.113Z,100747.92
2022-08-11T18:59:56.080Z,100750.04
2022-08-11T19:02:48.633Z,100752.12
2022-08-11T19:06:32.059Z,100749.25
2022-08-11T19:08:47.336Z,100742.86
2022-08-11T19:11:33.425Z,100735.10
2022-08-11T19:14:20.648Z,100742.04
2022-08-11T19:17:07.064Z,100739.35
2022-08-11T19:19:53.457Z,100744.02
2022-08-11T19:22:39.818Z,100746.66
2022-08-11T19:25:26.463Z,100750.52
2022-08-11T19:28:12.867Z,100754.02
2022-08-11T19:30:59.678Z,100748.71
2022-08-11T19:34:03.091Z,100747.57
2022-08-11T19:36:52.147Z,100745.07
2022-08-11T19:39:38.821Z,100753.30
2022-08-11T19:42:28.325Z,100752.66
2022-08-11T19:45:14.315Z,100750.11
2022-08-11T19:48:28.107Z,100755.61
2022-08-11T19:51:06.372Z,100754.54
2022-08-11T19:53:52.841Z,100748.85
2022-08-11T19:56:38.667Z,100750.05
2022-08-11T19:59:25.481Z,100745.30
2022-08-11T20:02:13.388Z,100740.59
2022-08-11T20:05:01.354Z,100737.43
2022-08-11T20:07:48.265Z,100735.35
2022-08-11T20:10:36.201Z,100737.50
2022-08-11T20:13:22.606Z,100735.88
2022-08-11T20:16:13.105Z,100738.34
2022-08-11T20:19:01.044Z,100742.83
2022-08-11T20:21:47.623Z,100738.89
2022-08-11T20:24:33.843Z,100739.73
2022-08-11T20:27:24.929Z,100736.20
2022-08-11T20:30:12.690Z,100736.29
2022-08-11T20:33:00.429Z,100737.48
2022-08-11T20:35:46.518Z,100746.02
2022-08-11T20:38:32.919Z,100743.33
2022-08-11T20:41:20.257Z,100740.97
2022-08-11T20:44:09.074Z,100743.62
2022-08-11T20:46:57.465Z,100743.66
2022-08-11T20:49:53.625Z,100742.31
2022-08-11T20:52:47.169Z,100736.07
2022-08-11T20:55:46.172Z,100731.89
2022-08-11T21:01:45.870Z,100731.42
2022-08-11T21:04:32.925Z,100738.38
2022-08-11T21:07:29.036Z,100741.52
2022-08-11T21:13:25.823Z,100746.31
2022-08-11T21:16:26.323Z,100749.32
2022-08-11T21:19:59.628Z,100752.03
2022-08-11T21:22:59.037Z,100753.65
2022-08-11T21:25:59.070Z,100745.67
2022-08-11T21:28:46.282Z,100746.30
2022-08-11T21:31:32.686Z,100743.27
2022-08-11T21:34:19.087Z,100745.14
2022-08-11T21:37:05.020Z,100745.14
2022-08-11T21:39:51.651Z,100750.71
2022-08-11T21:42:37.969Z,100744.96
2022-08-11T21:45:25.616Z,100751.03
2022-08-11T21:48:11.928Z,100754.65
2022-08-11T21:50:58.111Z,100755.98
2022-08-11T21:53:45.335Z,100754.83
2022-08-11T21:56:31.634Z,100753.73
2022-08-11T21:59:17.726Z,100753.55
2022-08-11T22:02:03.760Z,100757.92
2022-08-11T22:04:51.871Z,100762.79
2022-08-11T22:07:39.388Z,100764.48
2022-08-11T22:10:40.210Z,100761.34
2022-08-11T22:13:28.170Z,100760.95
2022-08-11T22:16:20.306Z,100761.89
2022-08-11T22:19:06.502Z,100763.73
2022-08-11T22:22:01.257Z,100760.15
2022-08-11T22:24:51.946Z,100755.10
2022-08-11T22:27:38.918Z,100757.75
2022-08-11T22:30:26.553Z,100761.95
2022-08-11T22:33:15.062Z,100761.89
2022-08-11T22:36:02.739Z,100768.77
2022-08-11T22:38:50.158Z,100770.27
2022-08-11T22:41:36.355Z,100774.52
2022-08-11T22:44:22.552Z,100776.11
2022-08-11T22:47:09.981Z,100777.42
2022-08-11T22:49:57.476Z,100776.77
2022-08-11T22:52:45.755Z,100772.35
2022-08-11T22:55:31.755Z,100767.90
2022-08-11T22:58:18.351Z,100766.55
2022-08-11T23:01:04.806Z,100768.43
2022-08-11T23:03:51.053Z,100768.16
2022-08-11T23:06:40.424Z,100770.02
2022-08-11T23:09:27.236Z,100777.55
2022-08-11T23:12:13.639Z,100775.30
2022-08-11T23:14:59.738Z,100774.14
2022-08-11T23:17:46.147Z,100772.81
2022-08-11T23:20:36.797Z,100774.02
2022-08-11T23:23:28.257Z,100774.86
2022-08-11T23:26:14.561Z,100775.23
2022-08-11T23:29:05.386Z,100777.21
2022-08-11T23:31:53.711Z,100776.92
2022-08-11T23:35:38.730Z,100779.70
2022-08-11T23:38:09.419Z,100774.98
2022-08-11T23:40:57.665Z,100780.33
2022-08-11T23:43:44.067Z,100781.45
2022-08-11T23:46:30.265Z,100777.59
2022-08-11T23:49:20.661Z,100782.61
2022-08-11T23:52:07.272Z,100780.11
2022-08-11T23:54:54.077Z,100777.59
2022-08-11T23:57:47.509Z,100785.89
